createdAt,value
2022-09-14T00:01:25.864Z,99689.22
2022-09-14T00:05:27.936Z,99677.53
2022-09-14T00:09:29.438Z,99680.69
2022-09-14T00:13:31.490Z,99677.56
2022-09-14T00:17:33.474Z,99669.00
2022-09-14T00:21:39.271Z,99649.06
2022-09-14T00:25:40.739Z,99629.88
2022-09-14T00:29:42.344Z,99626.16
2022-09-14T00:33:45.342Z,99618.34
2022-09-14T00:37:50.972Z,99600.06
2022-09-14T00:41:53.054Z,99589.53
2022-09-14T00:45:55.113Z,99578.09
2022-09-14T00:49:57.737Z,99563.47
2022-09-14T00:54:02.730Z,99565.13
2022-09-14T00:58:04.446Z,99584.16
2022-09-14T01:02:08.967Z,99574.59
2022-09-14T01:06:21.913Z,99569.44
2022-09-14T01:10:29.016Z,99559.00
2022-09-14T01:14:33.597Z,99561.56
2022-09-14T01:18:39.006Z,99545.03
2022-09-14T01:22:44.781Z,99558.81
2022-09-14T01:26:58.563Z,99565.81
2022-09-14T01:31:05.720Z,99558.97
2022-09-14T01:35:15.214Z,99566.75
2022-09-14T01:39:21.557Z,99559.00
2022-09-14T01:43:35.072Z,99553.31
2022-09-14T01:48:00.259Z,99587.66
2022-09-14T01:52:06.390Z,99605.97
2022-09-14T01:56:15.166Z,99607.94
2022-09-14T02:00:19.475Z,99602.09
2022-09-14T02:04:33.428Z,99606.38
2022-09-14T02:08:35.501Z,99608.09
2022-09-14T02:12:37.759Z,99608.19
2022-09-14T02:16:43.309Z,99617.59
2022-09-14T02:20:50.184Z,99621.06
2022-09-14T02:24:52.468Z,99618.53
2022-09-14T02:28:55.981Z,99586.63
2022-09-14T02:33:02.980Z,99579.75
2022-09-14T02:37:18.162Z,99569.25
2022-09-14T02:41:37.182Z,99572.53
2022-09-14T02:46:19.225Z,99543.06
2022-09-14T02:50:58.254Z,99537.78
2022-09-14T02:55:10.684Z,99532.53
2022-09-14T02:59:12.659Z,99500.41
2022-09-14T03:03:16.234Z,99480.47
2022-09-14T03:07:17.810Z,99482.06
2022-09-14T03:11:19.332Z,99478.53
2022-09-14T03:15:21.011Z,99462.88
2022-09-14T03:19:22.542Z,99460.31
2022-09-14T03:23:24.052Z,99493.31
2022-09-14T03:27:25.690Z,99487.22
2022-09-14T03:31:27.288Z,99497.47
2022-09-14T03:35:32.410Z,99493.88
2022-09-14T03:39:33.912Z,99514.56
2022-09-14T03:43:35.479Z,99509.41
2022-09-14T03:47:37.036Z,99507.75
2022-09-14T03:51:38.673Z,99533.66
2022-09-14T03:55:41.496Z,99512.94
2022-09-14T03:59:43.788Z,99481.16
2022-09-14T04:03:46.359Z,99490.78
2022-09-14T04:07:47.858Z,99505.56
2022-09-14T04:11:49.361Z,99491.78
2022-09-14T04:15:59.275Z,99490.00
2022-09-14T04:20:00.881Z,99485.56
2022-09-14T04:24:14.816Z,99481.16
2022-09-14T04:28:20.604Z,99495.00
2022-09-14T04:32:22.468Z,99486.34
2022-09-14T04:36:30.921Z,99475.06
2022-09-14T04:40:32.848Z,99471.56
2022-09-14T04:44:34.552Z,99467.16
2022-09-14T04:48:36.313Z,99468.88
2022-09-14T04:52:37.850Z,99478.31
2022-09-14T04:56:39.351Z,99474.81
2022-09-14T05:00:40.960Z,99477.34
2022-09-14T05:04:42.562Z,99473.91
2022-09-14T05:08:45.165Z,99463.47
2022-09-14T05:12:46.645Z,99464.38
2022-09-14T05:16:48.144Z,99520.97
2022-09-14T05:20:49.649Z,99495.84
2022-09-14T05:24:51.152Z,99494.19
2022-09-14T05:28:55.447Z,99504.53
2022-09-14T05:32:58.149Z,99498.53
2022-09-14T05:36:59.728Z,99500.13
2022-09-14T05:41:01.441Z,99500.06
2022-09-14T05:45:03.305Z,99485.28
2022-09-14T05:49:04.905Z,99478.31
2022-09-14T05:53:06.462Z,99472.25
2022-09-14T05:57:07.994Z,99478.22
2022-09-14T06:01:17.150Z,99467.75
2022-09-14T06:05:19.875Z,99469.38
2022-09-14T06:09:21.552Z,99469.28
2022-09-14T06:13:23.429Z,99485.66
2022-09-14T06:17:25.161Z,99480.38
2022-09-14T06:21:32.208Z,99484.66
2022-09-14T06:25:33.761Z,99492.41
2022-09-14T06:29:35.515Z,99494.97
2022-09-14T06:33:37.175Z,99480.19
2022-09-14T06:37:38.661Z,99471.47
2022-09-14T06:41:40.217Z,99476.59
2022-09-14T06:45:59.826Z,99479.06
2022-09-14T06:50:01.384Z,99459.88
2022-09-14T06:54:03.909Z,99476.22
2022-09-14T06:58:07.567Z,99472.66
2022-09-14T07:02:09.817Z,99465.56
2022-09-14T07:06:14.282Z,99454.97
2022-09-14T07:10:15.790Z,99462.72
2022-09-14T07:14:17.288Z,99470.41
2022-09-14T07:18:18.835Z,99467.81
2022-09-14T07:22:20.522Z,99465.28
2022-09-14T07:26:30.572Z,99473.84
2022-09-14T07:30:35.914Z,99478.00
2022-09-14T07:34:37.458Z,99464.78
2022-09-14T07:38:52.111Z,99468.81
2022-09-14T07:42:57.553Z,99467.72
2022-09-14T07:46:59.317Z,99481.38
2022-09-14T07:51:06.201Z,99488.00
2022-09-14T07:55:08.497Z,99482.28
2022-09-14T08:03:33.467Z,99483.19
2022-09-14T08:07:34.936Z,99499.28
2022-09-14T08:11:37.005Z,99515.59
2022-09-14T08:15:39.669Z,99504.19
2022-09-14T08:19:41.331Z,99497.81
2022-09-14T08:23:43.823Z,99527.09
2022-09-14T08:27:45.333Z,99532.94
2022-09-14T08:31:47.829Z,99530.78
2022-09-14T08:35:58.098Z,99542.28
2022-09-14T08:39:59.872Z,99540.44
2022-09-14T08:44:11.807Z,99536.00
2022-09-14T08:48:27.693Z,99537.50
2022-09-14T08:52:40.282Z,99513.81
2022-09-14T08:56:47.462Z,99513.19
2022-09-14T09:00:51.932Z,99531.91
2022-09-14T09:05:25.529Z,99544.94
2022-09-14T09:09:38.735Z,99543.28
2022-09-14T09:13:41.146Z,99539.63
2022-09-14T09:17:47.116Z,99527.53
2022-09-14T09:21:49.010Z,99525.41
2022-09-14T09:25:57.655Z,99515.22
2022-09-14T09:29:59.177Z,99537.38
2022-09-14T09:34:03.885Z,99517.88
2022-09-14T09:38:14.202Z,99498.84
2022-09-14T09:42:30.884Z,99489.47
2022-09-14T09:46:39.840Z,99478.81
2022-09-14T09:51:06.685Z,99475.91
2022-09-14T09:55:08.630Z,99469.59
2022-09-14T09:59:35.222Z,99468.00
2022-09-14T10:03:39.154Z,99458.41
2022-09-14T10:07:53.556Z,99452.81
2022-09-14T10:12:03.786Z,99443.16
2022-09-14T10:16:17.544Z,99433.63
2022-09-14T10:20:24.157Z,99433.09
2022-09-14T10:24:25.919Z,99429.03
2022-09-14T10:28:30.436Z,99411.63
2022-09-14T10:32:33.297Z,99404.75
2022-09-14T10:36:44.283Z,99397.13
2022-09-14T10:40:50.139Z,99394.22
2022-09-14T10:45:08.107Z,99375.41
2022-09-14T10:49:57.682Z,99366.69
2022-09-14T10:54:15.780Z,99358.66
2022-09-14T10:58:41.005Z,99355.47
2022-09-14T11:03:00.285Z,99340.44
2022-09-14T11:07:01.817Z,99324.38
2022-09-14T11:11:34.238Z,99328.31
2022-09-14T11:15:41.294Z,99328.09
2022-09-14T11:20:00.508Z,99317.63
2022-09-14T11:24:19.420Z,99317.81
2022-09-14T11:28:28.334Z,99311.94
2022-09-14T11:32:45.720Z,99317.22
2022-09-14T11:36:58.859Z,99315.53
2022-09-14T11:41:17.578Z,99317.91
2022-09-14T11:45:45.258Z,99319.38
2022-09-14T11:50:05.608Z,99310.91
2022-09-14T11:54:17.741Z,99312.72
2022-09-14T11:58:25.629Z,99302.97
2022-09-14T12:02:30.098Z,99304.84
2022-09-14T12:06:31.578Z,99309.50
2022-09-14T12:11:23.041Z,99318.06
2022-09-14T12:15:24.470Z,99325.38
2022-09-14T12:19:26.872Z,99335.84
2022-09-14T12:23:37.554Z,99338.13
2022-09-14T12:27:41.047Z,99348.16
2022-09-14T12:31:47.296Z,99347.75
2022-09-14T12:35:48.792Z,99371.75
2022-09-14T12:40:36.310Z,99374.84
2022-09-14T12:44:42.751Z,99373.50
2022-09-14T12:48:47.421Z,99372.09
2022-09-14T12:53:11.121Z,99376.69
2022-09-14T12:57:42.860Z,99373.47
2022-09-14T13:01:57.473Z,99343.03
2022-09-14T13:05:59.105Z,99335.00
2022-09-14T13:10:02.608Z,99333.00
2022-09-14T13:14:04.617Z,99324.19
2022-09-14T13:18:28.180Z,99316.63
2022-09-14T13:22:31.980Z,99336.03
2022-09-14T13:26:34.185Z,99337.63
2022-09-14T13:30:35.957Z,99339.75
2022-09-14T13:34:39.121Z,99351.34
2022-09-14T13:38:43.057Z,99358.00
2022-09-14T13:42:45.156Z,99365.53
2022-09-14T13:46:46.877Z,99367.81
2022-09-14T13:50:51.191Z,99377.75
2022-09-14T13:54:56.211Z,99378.16
2022-09-14T13:59:12.530Z,99383.66
2022-09-14T14:03:31.397Z,99373.41
2022-09-14T14:07:34.653Z,99365.88
2022-09-14T14:11:39.125Z,99360.56
2022-09-14T14:15:42.824Z,99369.34
2022-09-14T14:19:44.389Z,99361.47
2022-09-14T14:24:02.807Z,99377.38
2022-09-14T14:28:22.251Z,99361.13
2022-09-14T14:32:24.729Z,99347.38
2022-09-14T14:36:26.252Z,99331.75
2022-09-14T14:40:28.205Z,99314.41
2022-09-14T14:44:30.017Z,99321.53
2022-09-14T14:48:31.552Z,99320.69
2022-09-14T14:52:33.061Z,99321.69
2022-09-14T14:56:34.971Z,99315.06
2022-09-14T15:00:38.419Z,99318.66
2022-09-14T15:04:40.001Z,99330.78
2022-09-14T15:08:41.867Z,99321.25
2022-09-14T15:12:43.418Z,99306.50
2022-09-14T15:16:45.882Z,99290.97
2022-09-14T15:20:47.476Z,99264.13
2022-09-14T15:24:49.066Z,99265.06
2022-09-14T15:28:51.556Z,99270.47
2022-09-14T15:32:53.054Z,99275.09
2022-09-14T15:36:54.863Z,99264.91
2022-09-14T15:40:56.450Z,99260.47
2022-09-14T15:44:57.986Z,99283.97
2022-09-14T15:49:03.772Z,99278.66
2022-09-14T15:53:05.245Z,99268.00
2022-09-14T15:57:11.082Z,99256.50
2022-09-14T16:01:14.596Z,99255.34
2022-09-14T16:05:18.817Z,99259.59
2022-09-14T16:09:22.344Z,99257.81
2022-09-14T16:13:23.932Z,99260.16
2022-09-14T16:17:25.459Z,99271.31
2022-09-14T16:21:27.923Z,99310.44
2022-09-14T16:25:29.403Z,99321.00
2022-09-14T16:29:31.058Z,99340.34
2022-09-14T16:33:37.301Z,99354.06
2022-09-14T16:37:38.854Z,99350.66
2022-09-14T16:41:42.158Z,99345.97
2022-09-14T16:45:43.734Z,99331.66
2022-09-14T16:49:45.306Z,99328.69
2022-09-14T16:53:48.353Z,99326.00
2022-09-14T16:57:49.974Z,99330.41
2022-09-14T17:01:54.665Z,99320.16
2022-09-14T17:06:01.481Z,99329.91
2022-09-14T17:10:03.203Z,99327.78
2022-09-14T17:14:05.746Z,99320.28
2022-09-14T17:18:07.463Z,99336.50
2022-09-14T17:22:10.450Z,99330.72
2022-09-14T17:26:14.316Z,99314.56
2022-09-14T17:30:15.820Z,99311.31
2022-09-14T17:34:17.694Z,99305.53
2022-09-14T17:38:21.428Z,99304.88
2022-09-14T17:42:22.940Z,99308.25
2022-09-14T17:46:25.456Z,99302.94
2022-09-14T17:50:27.224Z,99314.19
2022-09-14T17:54:28.865Z,99322.91
2022-09-14T17:58:30.381Z,99337.72
2022-09-14T18:02:31.885Z,99354.41
2022-09-14T18:06:36.020Z,99355.28
2022-09-14T18:10:37.536Z,99382.00
2022-09-14T18:14:39.579Z,99371.63
2022-09-14T18:18:41.847Z,99393.41
2022-09-14T18:22:43.335Z,99386.66
2022-09-14T18:26:46.210Z,99390.97
2022-09-14T18:30:48.070Z,99387.69
2022-09-14T18:34:49.625Z,99394.56
2022-09-14T18:38:52.892Z,99397.16
2022-09-14T18:42:54.402Z,99403.22
2022-09-14T18:46:56.006Z,99396.38
2022-09-14T18:51:01.250Z,99402.50
2022-09-14T18:55:02.883Z,99409.34
2022-09-14T18:59:07.622Z,99411.84
2022-09-14T19:03:09.841Z,99399.69
2022-09-14T19:07:11.326Z,99397.94
2022-09-14T19:11:15.956Z,99383.22
2022-09-14T19:15:17.861Z,99397.97
2022-09-14T19:19:19.537Z,99410.94
2022-09-14T19:23:21.156Z,99388.44
2022-09-14T19:27:22.652Z,99395.31
2022-09-14T19:31:24.437Z,99396.19
2022-09-14T19:35:27.212Z,99391.78
2022-09-14T19:39:28.722Z,99388.34
2022-09-14T19:43:31.793Z,99392.78
2022-09-14T19:47:33.379Z,99392.78
2022-09-14T19:51:35.700Z,99399.69
2022-09-14T19:55:37.255Z,99397.06
2022-09-14T19:59:38.786Z,99397.00
2022-09-14T20:03:40.999Z,99370.09
2022-09-14T20:07:43.135Z,99416.06
2022-09-14T20:11:46.926Z,99427.72
2022-09-14T20:15:48.527Z,99438.88
2022-09-14T20:19:50.178Z,99449.28
2022-09-14T20:24:16.133Z,99464.94
2022-09-14T20:28:19.042Z,99439.84
2022-09-14T20:32:20.619Z,99447.59
2022-09-14T20:36:25.053Z,99450.25
2022-09-14T20:40:26.629Z,99450.25
2022-09-14T20:44:28.203Z,99433.59
2022-09-14T20:48:30.682Z,99430.75
2022-09-14T20:52:32.194Z,99424.53
2022-09-14T21:00:36.118Z,99440.88
2022-09-14T21:04:37.916Z,99436.50
2022-09-14T21:08:40.506Z,99426.97
2022-09-14T21:12:42.073Z,99434.88
2022-09-14T21:16:46.070Z,99436.56
2022-09-14T21:20:47.728Z,99433.06
2022-09-14T21:24:49.250Z,99433.84
2022-09-14T21:28:55.006Z,99439.00
2022-09-14T21:32:56.786Z,99443.28
2022-09-14T21:36:58.495Z,99440.63
2022-09-14T21:41:00.213Z,99441.41
2022-09-14T21:45:01.886Z,99443.16
2022-09-14T21:49:03.493Z,99440.56
2022-09-14T21:53:05.073Z,99423.19
2022-09-14T21:57:07.063Z,99414.53
2022-09-14T22:01:09.454Z,99423.16
2022-09-14T22:05:11.918Z,99410.13
2022-09-14T22:09:15.247Z,99407.56
2022-09-14T22:13:16.877Z,99399.78
2022-09-14T22:17:18.384Z,99405.00
2022-09-14T22:21:21.446Z,99403.25
2022-09-14T22:25:24.918Z,99405.84
2022-09-14T22:29:26.571Z,99400.66
2022-09-14T22:33:28.909Z,99407.66
2022-09-14T22:37:30.389Z,99425.00
2022-09-14T22:41:32.346Z,99434.53
2022-09-14T22:45:33.813Z,99433.69
2022-09-14T22:49:35.389Z,99433.72
2022-09-14T22:53:37.530Z,99431.06
2022-09-14T22:57:39.081Z,99446.66
2022-09-14T23:01:41.916Z,99448.41
2022-09-14T23:05:58.966Z,99442.38
2022-09-14T23:10:00.726Z,99434.59
2022-09-14T23:14:02.210Z,99436.31
2022-09-14T23:18:03.968Z,99439.72
2022-09-14T23:22:05.464Z,99446.66
2022-09-14T23:26:09.711Z,99444.06
2022-09-14T23:30:11.800Z,99445.81
2022-09-14T23:34:13.630Z,99441.53
2022-09-14T23:38:15.381Z,99443.28
2022-09-14T23:42:16.898Z,99437.16
2022-09-14T23:46:19.094Z,99429.44
2022-09-14T23:50:20.622Z,99432.03
2022-09-14T23:54:22.193Z,99430.28
2022-09-14T23:58:24.043Z,99425.09
